Time;durP1;ratioP1;P1;durP2;ratioP2;P2;SDS_P1;SDS_P2;PMS_P1;PMS_P2;Temp;Humidity;BMP_temperature;BMP_pressure;BME280_temperature;BME280_humidity;BME280_pressure;Samples;Min_cycle;Max_cycle;Signal;HPM_P1;HPM_P2
2021/12/30 00:00:06;;;;;;;9.50;8.60;;;9.00;99.90;;;7.75;100.00;97531.16;5067066;28;20468;-65
2021/12/30 00:02:33;;;;;;;8.90;7.87;;;9.10;99.90;;;7.92;100.00;97539.59;5067939;28;20451;-70
2021/12/30 00:05:00;;;;;;;10.63;7.83;;;9.10;99.90;;;7.88;100.00;97533.00;5096767;28;20465;-67
2021/12/30 00:07:29;;;;;;;8.97;8.07;;;9.20;99.90;;;7.90;100.00;97539.00;5081049;28;20483;-70
2021/12/30 00:09:56;;;;;;;8.93;8.13;;;9.20;99.90;;;7.83;100.00;97511.28;5083694;28;20560;-68
2021/12/30 00:12:23;;;;;;;8.80;8.00;;;9.20;99.90;;;8.07;100.00;97544.75;5083368;28;20537;-69
2021/12/30 00:14:50;;;;;;;7.23;6.63;;;9.30;99.90;;;8.13;100.00;97545.78;5081907;28;20794;-67
2021/12/30 00:17:17;;;;;;;10.50;7.67;;;9.40;99.90;;;8.20;100.00;97543.88;5083979;28;20529;-69
2021/12/30 00:19:44;;;;;;;8.27;7.47;;;9.40;99.90;;;8.31;100.00;97553.16;5088230;28;20481;-67
2021/12/30 00:22:11;;;;;;;8.07;7.37;;;9.50;99.90;;;8.30;100.00;97556.09;5081032;28;20469;-69
2021/12/30 00:24:40;;;;;;;7.50;6.80;;;9.60;99.90;;;8.44;100.00;97559.53;5081184;28;20459;-67
2021/12/30 00:27:07;;;;;;;7.27;6.57;;;9.60;99.90;;;8.52;100.00;97566.59;5080802;28;20560;-68
2021/12/30 00:29:34;;;;;;;7.67;6.60;;;9.70;99.90;;;8.64;100.00;97575.66;5078156;28;20537;-68
2021/12/30 00:32:01;;;;;;;6.80;6.20;;;9.80;99.90;;;8.86;100.00;97583.41;5085481;28;20472;-67
2021/12/30 00:34:28;;;;;;;6.27;5.67;;;10.00;99.90;;;9.02;100.00;97598.25;5085187;28;20464;-71
2021/12/30 00:36:55;;;;;;;4.70;4.40;;;10.10;99.90;;;9.04;100.00;97591.63;5067247;28;20563;-68
2021/12/30 00:39:22;;;;;;;5.17;4.77;;;10.20;99.90;;;9.09;100.00;97599.03;5079615;28;20483;-67
2021/12/30 00:41:51;;;;;;;5.47;4.97;;;10.30;99.90;;;9.16;100.00;97605.22;5081637;28;20597;-70
2021/12/30 00:44:18;;;;;;;4.80;4.33;;;10.40;99.90;;;9.28;100.00;97596.47;5076259;28;20561;-71
2021/12/30 00:46:45;;;;;;;5.00;4.60;;;10.50;99.90;;;9.35;100.00;97597.22;5083444;28;20473;-66
2021/12/30 00:49:13;;;;;;;4.67;4.27;;;10.60;99.90;;;9.33;100.00;97605.56;5069968;28;20889;-66
2021/12/30 00:51:40;;;;;;;4.40;4.00;;;10.60;99.90;;;9.41;100.00;97609.03;5081276;28;20883;-67
2021/12/30 00:54:07;;;;;;;4.00;3.60;;;10.60;99.90;;;9.51;100.00;97614.75;5082806;28;20564;-66
2021/12/30 00:56:34;;;;;;;4.33;4.03;;;10.70;99.90;;;9.54;100.00;97619.72;5082598;28;20551;-68
2021/12/30 00:59:03;;;;;;;4.00;3.60;;;10.70;99.90;;;9.47;100.00;97598.19;5085526;28;20514;-71
2021/12/30 01:01:30;;;;;;;3.90;3.60;;;10.80;99.90;;;9.60;100.00;97605.34;5083621;28;20467;-68
2021/12/30 01:03:57;;;;;;;3.73;3.50;;;10.80;99.90;;;9.53;100.00;97601.88;5065478;28;21109;-71
2021/12/30 01:06:24;;;;;;;3.30;3.00;;;10.80;99.90;;;9.70;100.00;97604.03;5080941;28;20487;-67
2021/12/30 01:08:50;;;;;;;2.93;2.73;;;10.80;99.90;;;9.63;100.00;97607.63;5084988;28;20457;-65
2021/12/30 01:11:20;;;;;;;3.37;3.10;;;10.80;99.90;;;9.70;100.00;97626.44;5081906;28;20744;-70
2021/12/30 01:13:55;;;;;;;2.90;2.70;;;10.90;99.90;;;9.78;100.00;97628.03;5082278;28;20458;-69
2021/12/30 01:16:24;;;;;;;2.80;2.60;;;11.00;99.90;;;9.82;100.00;97634.66;5067479;28;20448;-67
2021/12/30 01:19:00;;;;;;;3.03;2.73;;;11.00;99.90;;;9.80;100.00;97631.34;5070128;28;20529;-67
2021/12/30 01:21:32;;;;;;;2.50;2.20;;;11.00;99.90;;;9.88;100.00;97631.06;5080883;28;20444;-69
2021/12/30 01:24:00;;;;;;;2.60;2.40;;;11.00;99.90;;;9.88;100.00;97639.16;5084052;28;20491;-68
2021/12/30 01:26:27;;;;;;;2.30;2.20;;;11.10;99.90;;;9.91;100.00;97637.91;5084485;28;20469;-71
2021/12/30 01:28:55;;;;;;;2.10;2.00;;;11.10;99.90;;;9.92;100.00;97651.16;5097876;28;20456;-67
2021/12/30 01:31:23;;;;;;;2.60;2.40;;;11.10;99.90;;;10.00;100.00;97660.03;5082891;28;20548;-68
2021/12/30 01:33:50;;;;;;;2.30;2.10;;;11.20;99.90;;;10.04;100.00;97659.38;5079516;28;20455;-70
2021/12/30 01:36:17;;;;;;;2.83;2.03;;;11.20;99.90;;;10.00;99.69;97652.75;5080274;28;20473;-68
2021/12/30 01:38:45;;;;;;;1.93;1.83;;;11.20;99.90;;;10.04;100.00;97661.25;5066535;28;20528;-68
2021/12/30 01:41:13;;;;;;;1.87;1.77;;;11.20;99.90;;;10.02;100.00;97666.03;5088611;28;20461;-67
2021/12/30 01:43:40;;;;;;;1.90;1.80;;;11.20;99.90;;;9.98;100.00;97675.63;5071833;28;20493;-65
2021/12/30 01:46:10;;;;;;;1.97;1.80;;;11.20;99.90;;;10.03;99.01;97670.41;5087769;28;20471;-66
2021/12/30 01:48:38;;;;;;;1.97;1.87;;;11.20;99.90;;;10.10;98.50;97690.06;5068256;28;20467;-68
2021/12/30 01:51:08;;;;;;;1.37;1.27;;;11.30;99.90;;;10.09;98.63;97688.41;5086328;28;20539;-66
2021/12/30 01:53:36;;;;;;;1.33;1.23;;;11.30;99.90;;;10.13;98.42;97700.44;5086985;28;20521;-70
2021/12/30 01:56:05;;;;;;;2.03;1.33;;;11.30;99.90;;;10.13;98.11;97697.72;5088065;28;20457;-67
2021/12/30 01:58:35;;;;;;;1.40;1.30;;;11.30;99.90;;;10.08;97.45;97686.75;5089892;28;20458;-67
2021/12/30 02:01:03;;;;;;;1.67;1.57;;;11.30;99.90;;;10.12;97.10;97701.47;5087873;28;20505;-66
2021/12/30 02:03:30;;;;;;;2.87;1.50;;;11.40;99.50;;;10.10;97.24;97703.56;5084215;28;20516;-67
2021/12/30 02:05:59;;;;;;;1.30;1.20;;;11.30;99.40;;;10.20;95.99;97700.38;5084324;28;20457;-69
2021/12/30 02:08:26;;;;;;;4.00;1.30;;;11.40;98.30;;;10.22;95.96;97714.47;5087321;28;20453;-68
2021/12/30 02:10:53;;;;;;;1.80;1.70;;;11.40;97.40;;;10.18;95.91;97730.28;5077031;28;20461;-66
2021/12/30 02:13:21;;;;;;;1.27;1.17;;;11.40;97.60;;;10.16;95.45;97734.22;5086147;28;20954;-69
2021/12/30 02:15:49;;;;;;;1.20;1.20;;;11.40;97.60;;;10.15;95.94;97746.91;5084389;28;20464;-68
2021/12/30 02:18:16;;;;;;;1.70;1.20;;;11.40;97.20;;;10.24;94.61;97741.25;5085653;28;20523;-68
2021/12/30 02:20:51;;;;;;;1.10;1.00;;;11.40;96.10;;;10.23;94.89;97737.72;5084228;28;21207;-66
2021/12/30 02:23:22;;;;;;;1.70;1.23;;;11.50;96.10;;;10.30;94.35;97745.78;5095130;28;21155;-69
2021/12/30 02:25:51;;;;;;;1.50;1.13;;;11.50;96.20;;;10.20;94.44;97754.38;5100947;28;20497;-67
2021/12/30 02:28:24;;;;;;;4.00;1.43;;;11.50;96.70;;;10.12;94.94;97743.81;5068712;28;20981;-70
2021/12/30 02:30:54;;;;;;;1.07;0.90;;;11.50;96.80;;;10.27;95.00;97759.72;5091674;28;20452;-68
2021/12/30 02:33:21;;;;;;;1.40;1.30;;;11.50;96.80;;;10.21;95.03;97759.53;5083815;28;20875;-68
2021/12/30 02:35:50;;;;;;;2.23;1.40;;;11.40;96.90;;;10.17;95.11;97771.81;5085531;28;21182;-69
2021/12/30 02:38:19;;;;;;;1.30;1.20;;;11.40;97.00;;;10.18;95.32;97784.28;5066831;28;20455;-67
2021/12/30 02:40:50;;;;;;;3.00;1.20;;;11.40;97.00;;;10.12;95.79;97773.53;5083745;28;20522;-68
2021/12/30 02:43:21;;;;;;;1.50;1.40;;;11.40;97.90;;;10.15;95.55;97787.41;5086698;28;20559;-67
2021/12/30 02:45:48;;;;;;;1.90;1.43;;;11.40;97.60;;;10.23;95.14;97782.78;5076734;28;20488;-67
2021/12/30 02:48:18;;;;;;;1.90;1.70;;;11.40;96.80;;;10.06;95.03;97778.75;5082269;28;20577;-66
2021/12/30 02:50:49;;;;;;;1.77;1.50;;;11.40;96.70;;;10.15;95.05;97787.41;5085081;28;20457;-66
2021/12/30 02:53:17;;;;;;;2.20;1.50;;;11.40;96.60;;;10.15;94.75;97784.72;5085327;28;20554;-69
2021/12/30 02:55:45;;;;;;;1.30;1.20;;;11.40;96.80;;;10.02;95.14;97782.09;5087488;28;20963;-66
2021/12/30 02:58:13;;;;;;;1.53;1.40;;;11.30;96.70;;;10.13;94.81;97785.97;5080956;28;20546;-69
2021/12/30 03:00:42;;;;;;;1.60;1.50;;;11.30;96.80;;;10.07;95.29;97782.25;5086982;28;20473;-70
2021/12/30 03:03:18;;;;;;;2.50;1.40;;;11.30;96.80;;;9.97;95.29;97787.34;5082477;28;20486;-67
2021/12/30 03:05:45;;;;;;;1.30;1.20;;;11.20;97.40;;;9.93;96.05;97808.53;5092938;28;20453;-70
2021/12/30 03:08:14;;;;;;;2.50;1.70;;;11.20;97.70;;;9.91;96.30;97811.41;5080546;28;20463;-68
2021/12/30 03:10:41;;;;;;;1.57;1.47;;;11.10;98.10;;;9.96;95.60;97799.19;5093069;28;20459;-66
2021/12/30 03:13:10;;;;;;;1.87;1.30;;;11.10;98.10;;;9.99;95.31;97820.31;5083587;28;20461;-67
2021/12/30 03:15:37;;;;;;;1.30;1.20;;;11.10;98.20;;;9.89;96.08;97829.72;5081246;28;21021;-67
2021/12/30 03:18:05;;;;;;;2.33;1.50;;;11.10;98.20;;;9.84;95.85;97818.75;5067350;28;20482;-69
2021/12/30 03:20:34;;;;;;;1.83;1.40;;;11.10;98.10;;;9.85;96.03;97817.69;5071119;28;20513;-66
2021/12/30 03:23:01;;;;;;;2.03;1.93;;;11.10;99.10;;;9.83;95.83;97827.03;5085486;28;20472;-69
2021/12/30 03:25:30;;;;;;;3.10;1.50;;;11.00;99.30;;;9.76;96.70;97829.78;5093526;28;20452;-69
2021/12/30 03:27:57;;;;;;;2.00;1.37;;;11.00;99.50;;;9.68;97.37;97838.13;5084705;28;20495;-69
2021/12/30 03:30:26;;;;;;;1.70;1.60;;;10.90;99.90;;;9.63;97.82;97836.91;5087196;28;20488;-67
2021/12/30 03:32:53;;;;;;;2.20;1.70;;;10.80;99.90;;;9.70;97.05;97836.84;5067602;28;20463;-67
2021/12/30 03:35:21;;;;;;;2.80;1.80;;;10.80;99.90;;;9.73;97.47;97852.63;5099675;28;20455;-67
2021/12/30 03:37:48;;;;;;;2.27;2.07;;;10.90;99.90;;;9.61;97.77;97863.25;5067380;28;20468;-67
2021/12/30 03:40:17;;;;;;;1.87;1.70;;;10.80;99.90;;;9.80;97.27;97874.19;5081772;28;21018;-73
2021/12/30 03:42:46;;;;;;;2.30;1.47;;;10.90;99.90;;;9.73;97.19;97874.22;5087453;28;20549;-66
2021/12/30 03:45:16;;;;;;;2.53;1.60;;;11.00;99.90;;;9.73;97.99;97876.06;5082758;28;20454;-67
2021/12/30 03:47:48;;;;;;;2.33;2.20;;;10.90;99.90;;;9.76;97.79;97883.72;5066118;28;20831;-66
2021/12/30 03:50:20;;;;;;;2.10;2.00;;;11.00;99.90;;;9.51;98.24;97844.00;5084566;28;20571;-69
2021/12/30 03:52:49;;;;;;;2.73;2.50;;;11.00;99.90;;;9.81;97.69;97899.28;5085798;28;20468;-68
2021/12/30 03:55:17;;;;;;;2.30;1.90;;;11.00;99.90;;;9.99;97.33;97887.81;5097193;28;20454;-67
2021/12/30 03:57:46;;;;;;;1.97;1.80;;;11.10;99.90;;;10.00;96.73;97894.84;5097154;27;20512;-68
2021/12/30 04:00:15;;;;;;;2.03;1.57;;;11.20;99.10;;;9.95;97.04;97887.41;5083883;28;20567;-66
2021/12/30 04:02:42;;;;;;;1.63;1.53;;;11.20;99.20;;;9.93;97.12;97905.69;5085448;28;20544;-67
2021/12/30 04:05:11;;;;;;;1.80;1.70;;;11.10;99.70;;;9.91;96.33;97916.66;5085101;28;20555;-67
2021/12/30 04:07:38;;;;;;;3.47;2.60;;;11.10;99.30;;;10.03;96.59;97914.16;5081573;28;20544;-67
2021/12/30 04:10:09;;;;;;;2.00;1.90;;;11.10;99.60;;;9.88;95.87;97909.00;5083045;28;20495;-68
2021/12/30 04:12:36;;;;;;;2.90;1.90;;;11.10;98.90;;;9.72;97.10;97904.09;5081594;28;20488;-72
2021/12/30 04:15:07;;;;;;;4.20;2.57;;;11.00;99.30;;;9.81;95.80;97910.06;5085952;28;20546;-70
2021/12/30 04:17:34;;;;;;;1.90;1.80;;;11.00;98.20;;;9.60;97.01;97907.44;5064055;28;20487;-72
2021/12/30 04:20:01;;;;;;;2.97;2.27;;;10.90;99.00;;;9.61;97.31;97914.50;5083333;28;20480;-69
2021/12/30 04:22:28;;;;;;;2.07;1.77;;;10.90;99.50;;;9.67;97.04;97938.97;5085345;28;20460;-69
2021/12/30 04:24:55;;;;;;;1.53;1.33;;;10.90;99.50;;;9.52;97.54;97931.97;5082533;28;20472;-68
2021/12/30 04:27:22;;;;;;;2.00;1.63;;;10.80;99.80;;;9.48;97.14;97928.03;5083418;28;20569;-69
2021/12/30 04:29:49;;;;;;;2.00;1.40;;;10.70;99.90;;;9.50;97.40;97925.94;5081213;28;20489;-70
2021/12/30 04:32:18;;;;;;;2.70;2.00;;;10.70;99.90;;;9.16;97.52;97866.69;5086114;28;20468;-67
2021/12/30 04:34:44;;;;;;;2.20;1.80;;;10.80;99.90;;;9.56;96.82;97935.88;5084133;28;20484;-70
2021/12/30 04:37:11;;;;;;;2.50;1.70;;;10.80;99.90;;;9.60;97.80;97939.81;5080521;28;21036;-69
2021/12/30 04:39:38;;;;;;;2.40;1.80;;;10.80;99.90;;;9.69;96.61;97942.28;5062816;28;20551;-69
2021/12/30 04:42:06;;;;;;;3.00;2.20;;;10.80;99.50;;;9.63;97.19;97952.91;5082387;28;20548;-68
2021/12/30 04:44:33;;;;;;;2.53;1.63;;;10.80;99.40;;;9.39;97.10;97926.59;5083645;28;20448;-70
2021/12/30 04:47:00;;;;;;;3.07;1.87;;;10.80;99.50;;;9.85;96.08;97952.63;5090872;28;20818;-68
2021/12/30 04:49:28;;;;;;;2.50;2.30;;;10.90;98.90;;;9.73;95.63;97954.31;5079237;28;21027;-69
2021/12/30 04:51:55;;;;;;;2.50;1.97;;;10.90;97.60;;;9.72;96.57;97958.06;5087730;28;20915;-68
2021/12/30 04:54:22;;;;;;;1.73;1.53;;;10.90;99.00;;;9.68;96.25;97952.25;5084038;28;20919;-69
2021/12/30 04:56:51;;;;;;;1.77;1.67;;;10.90;99.90;;;9.86;95.03;97970.47;5083857;28;20547;-72
2021/12/30 04:59:18;;;;;;;2.50;2.30;;;11.00;98.50;;;9.80;96.44;97975.88;5085167;28;20461;-69
2021/12/30 05:01:45;;;;;;;5.70;2.67;;;10.90;99.00;;;9.81;95.57;97981.06;5061910;28;20537;-70
2021/12/30 05:04:12;;;;;;;4.40;1.90;;;11.00;98.10;;;9.83;95.52;97995.19;5085940;28;20556;-72
2021/12/30 05:06:40;;;;;;;2.10;1.73;;;10.90;98.70;;;9.70;96.31;97995.22;5066534;28;22830;-74
2021/12/30 05:09:08;;;;;;;2.93;2.00;;;10.90;98.60;;;9.86;96.04;97993.94;5082258;28;20474;-68
2021/12/30 05:11:39;;;;;;;4.73;1.70;;;11.00;98.40;;;9.76;95.52;97992.50;5078780;28;20467;-66
2021/12/30 05:14:06;;;;;;;2.73;2.40;;;10.90;98.10;;;9.68;96.21;97997.28;5082736;28;20463;-66
2021/12/30 05:16:33;;;;;;;2.40;1.83;;;10.90;98.70;;;9.57;96.87;97994.19;5073512;28;20571;-69
2021/12/30 05:19:00;;;;;;;4.43;1.63;;;10.80;99.50;;;9.64;96.74;97995.00;5081951;28;20810;-67
2021/12/30 05:21:27;;;;;;;2.93;1.90;;;10.90;99.60;;;9.73;96.25;98001.03;5079070;28;20474;-66
2021/12/30 05:23:55;;;;;;;4.10;2.83;;;10.90;99.90;;;9.78;96.15;97992.25;5081901;28;20463;-67
2021/12/30 05:26:25;;;;;;;4.80;2.33;;;10.90;98.50;;;9.81;95.81;97994.56;5056614;28;20486;-69
2021/12/30 05:28:52;;;;;;;2.97;1.93;;;11.00;97.50;;;9.75;96.23;98006.19;5081388;28;20458;-68
2021/12/30 05:31:19;;;;;;;5.13;2.10;;;10.90;98.10;;;9.78;95.63;98000.38;5080755;28;20442;-68
2021/12/30 05:33:46;;;;;;;2.40;1.50;;;10.90;97.50;;;9.69;95.52;97991.66;5084210;28;20513;-68
2021/12/30 05:36:13;;;;;;;3.10;1.80;;;10.90;96.90;;;9.83;94.04;98000.56;5065023;28;20463;-68
2021/12/30 05:38:40;;;;;;;3.50;1.60;;;11.00;96.10;;;9.80;94.16;98002.84;5080734;28;20454;-69
2021/12/30 05:41:09;;;;;;;9.27;1.93;;;11.00;96.10;;;9.47;93.66;97950.63;5084849;28;20569;-67
2021/12/30 05:43:37;;;;;;;3.43;1.33;;;11.00;95.10;;;9.66;92.82;97983.19;5066393;28;20549;-69
2021/12/30 05:46:04;;;;;;;5.07;1.83;;;11.00;94.60;;;9.86;93.21;98029.84;5083277;28;21053;-68
2021/12/30 05:48:32;;;;;;;4.93;2.47;;;11.00;94.50;;;9.97;91.41;98035.63;5082370;28;20986;-68
2021/12/30 05:51:00;;;;;;;5.40;2.30;;;11.10;93.80;;;9.98;91.25;98042.69;5082053;28;21065;-66
2021/12/30 05:53:27;;;;;;;4.07;1.50;;;11.10;93.60;;;9.78;91.72;98032.75;5081310;28;21080;-68
2021/12/30 05:55:54;;;;;;;5.93;2.37;;;11.10;93.50;;;9.90;90.68;98057.25;5066817;28;20448;-70
2021/12/30 05:58:22;;;;;;;3.77;1.47;;;11.10;92.80;;;9.83;91.36;98062.63;5083205;28;20483;-67
2021/12/30 06:00:50;;;;;;;7.90;1.90;;;11.00;93.10;;;9.89;90.84;98067.19;5081617;28;20623;-67
2021/12/30 06:03:19;;;;;;;2.50;1.20;;;11.00;93.00;;;9.89;91.11;98067.19;5063677;28;20971;-66
2021/12/30 06:05:46;;;;;;;4.00;1.70;;;11.10;93.00;;;9.88;90.83;98070.94;5063485;28;20491;-73
2021/12/30 06:08:13;;;;;;;4.37;1.67;;;11.00;93.00;;;9.87;91.06;98071.16;5075279;28;20450;-67
2021/12/30 06:10:41;;;;;;;3.70;1.53;;;11.00;92.90;;;9.90;91.15;98068.84;5083621;28;20550;-66
2021/12/30 06:13:08;;;;;;;2.47;1.67;;;11.10;92.60;;;9.94;90.55;98068.44;5080719;28;20453;-73
2021/12/30 06:15:37;;;;;;;5.80;1.97;;;11.10;92.50;;;9.99;90.40;98061.34;5084436;28;20530;-68
2021/12/30 06:18:05;;;;;;;2.53;1.87;;;11.10;92.30;;;10.03;90.01;98050.97;5064782;28;20457;-67
2021/12/30 06:20:32;;;;;;;3.17;1.70;;;11.20;92.00;;;9.91;90.38;98058.91;5082759;28;20480;-68
2021/12/30 06:22:59;;;;;;;4.13;2.07;;;11.10;92.40;;;10.02;90.13;98060.13;5076778;28;20504;-71
2021/12/30 06:25:26;;;;;;;4.93;2.63;;;11.20;92.50;;;10.00;90.09;98062.19;5067871;28;20563;-70
2021/12/30 06:27:53;;;;;;;5.70;2.23;;;11.20;92.40;;;9.92;91.59;98061.38;5093910;28;20524;-69
2021/12/30 06:30:20;;;;;;;3.30;1.97;;;11.10;92.80;;;10.03;90.78;98061.78;5084945;28;20587;-70
2021/12/30 06:32:49;;;;;;;5.20;2.70;;;11.20;92.80;;;10.06;90.33;98066.75;5095455;28;20542;-67
2021/12/30 06:35:16;;;;;;;7.27;2.40;;;11.20;92.70;;;10.16;90.67;98069.00;5085066;28;20465;-71
2021/12/30 06:37:43;;;;;;;6.23;1.93;;;11.30;92.50;;;10.14;90.53;98069.22;5083267;28;20776;-72
2021/12/30 06:40:13;;;;;;;5.07;2.30;;;11.30;92.40;;;9.90;91.19;98060.75;5069097;28;20575;-68
2021/12/30 06:42:43;;;;;;;3.83;2.43;;;11.20;92.60;;;9.98;91.34;98073.19;5069848;28;20539;-73
2021/12/30 06:45:10;;;;;;;5.87;2.13;;;11.10;93.50;;;10.17;91.10;98062.59;5084829;28;20476;-70
2021/12/30 06:47:37;;;;;;;3.93;2.03;;;11.30;92.90;;;10.07;91.36;98068.41;5084302;28;20449;-70
2021/12/30 06:50:07;;;;;;;5.70;2.50;;;11.30;92.90;;;10.07;91.00;98069.25;5088004;28;20557;-69
2021/12/30 06:52:35;;;;;;;5.87;2.10;;;11.30;93.20;;;10.13;91.07;98072.97;5083628;28;20578;-75
2021/12/30 06:55:02;;;;;;;4.67;2.20;;;11.30;93.10;;;10.14;91.46;98069.22;5084060;28;20516;-68
2021/12/30 06:57:29;;;;;;;4.27;2.67;;;11.30;93.70;;;9.98;92.23;98048.09;5087292;28;20810;-67
2021/12/30 06:59:56;;;;;;;4.43;2.17;;;11.20;94.10;;;10.12;92.24;98065.06;5084361;28;20472;-70
2021/12/30 07:02:23;;;;;;;6.30;2.63;;;11.30;93.90;;;10.18;92.64;98070.47;5089263;28;20574;-67
2021/12/30 07:04:50;;;;;;;4.13;2.40;;;11.30;94.30;;;10.06;92.56;98066.75;5088169;28;20523;-71
2021/12/30 07:07:19;;;;;;;3.53;2.50;;;11.30;93.90;;;10.09;92.30;98076.31;5068667;28;20486;-66
2021/12/30 07:09:47;;;;;;;5.67;2.40;;;11.30;94.30;;;10.01;93.35;98080.06;5086803;28;20966;-72
2021/12/30 07:12:14;;;;;;;5.60;2.67;;;11.20;94.70;;;10.03;93.41;98083.38;5093558;28;20828;-66
2021/12/30 07:14:41;;;;;;;3.83;2.60;;;11.20;95.60;;;10.01;93.62;98080.06;5085197;28;20542;-69
2021/12/30 07:17:08;;;;;;;7.43;3.03;;;11.20;95.60;;;9.86;95.26;98083.81;5067262;28;20464;-66
2021/12/30 07:19:35;;;;;;;9.27;2.73;;;11.10;96.60;;;10.01;94.43;98090.84;5068057;28;21057;-69
2021/12/30 07:22:02;;;;;;;4.07;2.97;;;11.10;97.20;;;9.86;94.89;98085.69;5083989;28;20484;-70
2021/12/30 07:24:30;;;;;;;5.10;3.33;;;11.10;97.50;;;9.91;95.38;98097.50;5082202;28;20486;-70
2021/12/30 07:26:58;;;;;;;4.50;3.73;;;11.10;98.40;;;9.95;96.22;98097.09;5086109;28;20461;-68
2021/12/30 07:29:25;;;;;;;7.70;3.43;;;11.10;99.60;;;9.90;96.31;98101.22;5084697;28;20470;-68
2021/12/30 07:31:52;;;;;;;9.40;3.50;;;11.10;99.80;;;9.86;97.04;98099.19;5087807;28;20448;-66
2021/12/30 07:34:19;;;;;;;4.57;3.60;;;11.00;99.90;;;9.82;97.03;98098.75;5068771;28;20499;-68
2021/12/30 07:36:46;;;;;;;10.03;3.70;;;11.00;99.90;;;9.82;97.45;98098.75;5079936;28;21153;-73
2021/12/30 07:39:13;;;;;;;6.57;3.53;;;11.00;99.90;;;9.89;97.89;98107.66;5062203;28;20486;-67
2021/12/30 07:41:41;;;;;;;9.93;4.20;;;11.00;99.90;;;9.84;97.47;98079.66;5063164;28;20580;-71
2021/12/30 07:44:09;;;;;;;10.90;4.97;;;11.10;99.90;;;10.18;97.00;98112.84;5085278;28;20529;-68
2021/12/30 07:46:36;;;;;;;8.23;4.20;;;11.20;99.90;;;10.21;96.94;98105.13;5078009;28;20480;-75
2021/12/30 07:49:05;;;;;;;9.27;5.17;;;11.30;99.90;;;10.20;96.86;98108.88;5082907;28;20814;-78
2021/12/30 07:51:32;;;;;;;8.00;5.20;;;11.30;99.90;;;10.07;97.94;98111.59;5084866;28;20460;-69
2021/12/30 07:53:59;;;;;;;8.70;4.13;;;11.20;99.90;;;9.85;98.69;98114.53;5083960;28;20468;-71
2021/12/30 07:56:25;;;;;;;11.20;4.90;;;11.10;99.90;;;9.99;98.82;98115.34;5066816;28;20460;-70
2021/12/30 07:58:54;;;;;;;8.33;5.00;;;11.10;99.90;;;10.11;98.90;98122.81;5083158;28;20578;-70
2021/12/30 08:01:21;;;;;;;6.17;4.97;;;11.20;99.90;;;10.10;99.24;98132.78;5081168;28;20478;-70
2021/12/30 08:03:48;;;;;;;8.80;5.60;;;11.20;99.90;;;10.18;98.78;98129.03;5074509;28;21113;-68
2021/12/30 08:06:15;;;;;;;7.27;4.60;;;11.20;99.90;;;10.20;99.11;98127.78;5079272;28;20997;-71
2021/12/30 08:08:44;;;;;;;6.53;5.83;;;11.30;99.90;;;10.19;98.08;98128.81;5079922;28;20904;-71
2021/12/30 08:11:12;;;;;;;9.10;5.33;;;11.30;99.90;;;10.13;98.81;98145.88;5084899;28;20545;-69
2021/12/30 08:13:39;;;;;;;5.63;4.57;;;11.30;99.90;;;10.24;98.39;98133.59;5074567;28;20507;-69
2021/12/30 08:16:07;;;;;;;8.00;6.30;;;11.30;99.90;;;10.25;98.59;98135.25;5063506;28;20478;-74
2021/12/30 08:18:34;;;;;;;6.57;5.87;;;11.30;99.90;;;10.07;100.00;98117.84;5078055;28;20465;-72
2021/12/30 08:21:01;;;;;;;6.23;5.60;;;11.30;99.90;;;10.01;100.00;98126.78;5059655;28;21045;-69
2021/12/30 08:23:28;;;;;;;7.60;5.90;;;11.20;99.90;;;10.16;100.00;98114.91;5086074;28;20575;-69
2021/12/30 08:25:55;;;;;;;6.70;5.60;;;11.20;99.90;;;10.09;100.00;98106.84;5080020;28;20453;-70
2021/12/30 08:28:24;;;;;;;7.83;6.60;;;11.30;99.90;;;9.96;100.00;98117.66;5081060;28;20513;-70
2021/12/30 08:30:52;;;;;;;8.13;6.30;;;11.20;99.90;;;9.83;100.00;98122.00;5083064;28;20450;-71
2021/12/30 08:33:20;;;;;;;8.10;6.73;;;11.10;99.90;;;9.96;100.00;98109.56;5081803;28;20463;-70
2021/12/30 08:35:47;;;;;;;8.43;7.27;;;11.10;99.90;;;9.94;100.00;98117.03;5081856;28;20510;-73
2021/12/30 08:38:14;;;;;;;10.87;7.13;;;11.10;99.90;;;9.96;100.00;98113.06;5082568;28;20458;-75
2021/12/30 08:40:42;;;;;;;10.23;7.77;;;11.20;99.90;;;10.05;100.00;98124.47;5089964;28;20459;-72
2021/12/30 08:43:10;;;;;;;10.27;7.47;;;11.20;99.90;;;10.05;100.00;98090.22;5097383;27;20466;-72
2021/12/30 08:45:37;;;;;;;9.83;7.20;;;11.30;99.90;;;10.21;100.00;98088.13;5087515;28;20796;-74
2021/12/30 08:48:05;;;;;;;15.70;9.00;;;11.40;99.90;;;10.16;100.00;98115.75;5079634;28;20470;-74
2021/12/30 08:50:34;;;;;;;10.90;7.70;;;11.40;99.90;;;10.20;100.00;98124.25;5075039;28;20499;-74
2021/12/30 08:53:01;;;;;;;10.40;8.10;;;11.40;99.90;;;10.33;100.00;98126.09;5063164;28;20961;-73
2021/12/30 08:55:29;;;;;;;11.90;9.37;;;11.40;99.90;;;10.52;100.00;98134.38;5072898;28;20533;-74
2021/12/30 08:57:56;;;;;;;8.53;7.67;;;11.50;99.90;;;10.16;100.00;98083.34;5093306;28;20447;-74
2021/12/30 09:00:29;;;;;;;11.33;10.13;;;11.60;99.90;;;10.40;100.00;98121.53;5071915;28;20452;-73
2021/12/30 09:03:00;;;;;;;10.17;8.53;;;11.60;99.90;;;10.38;100.00;98126.28;5067960;28;20472;-73
2021/12/30 09:05:28;;;;;;;11.53;8.60;;;11.60;99.90;;;10.51;100.00;98138.97;5084376;28;20964;-73
2021/12/30 09:07:57;;;;;;;12.30;8.23;;;11.60;99.90;;;10.42;100.00;98126.72;5085080;28;20455;-73
2021/12/30 09:10:24;;;;;;;12.87;10.50;;;11.70;99.90;;;10.52;100.00;98143.34;5078735;28;20457;-72
2021/12/30 09:12:54;;;;;;;9.93;8.47;;;11.70;99.90;;;10.62;100.00;98134.78;5058359;28;20532;-71
2021/12/30 09:15:24;;;;;;;11.43;9.07;;;11.80;99.90;;;10.72;100.00;98132.47;5073379;28;20906;-71
2021/12/30 09:17:53;;;;;;;8.23;7.37;;;11.80;99.90;;;10.53;100.00;98119.84;5079463;28;20467;-73
2021/12/30 09:20:21;;;;;;;7.47;6.40;;;11.80;99.90;;;10.65;100.00;98133.53;5086977;28;20548;-71
2021/12/30 09:22:49;;;;;;;6.03;5.27;;;11.80;99.90;;;10.57;100.00;98124.59;5059717;28;20483;-71
2021/12/30 09:25:22;;;;;;;4.67;4.27;;;11.90;99.90;;;10.73;100.00;98142.22;5059897;28;20970;-75
2021/12/30 09:27:49;;;;;;;4.17;3.60;;;11.90;99.90;;;10.99;100.00;98124.22;5081050;28;20461;-73
2021/12/30 09:30:18;;;;;;;7.00;3.93;;;12.10;99.90;;;11.01;100.00;98124.84;5097913;28;20449;-73
2021/12/30 09:32:47;;;;;;;3.53;3.23;;;12.20;99.90;;;11.04;100.00;98137.94;5079220;28;20539;-73
2021/12/30 09:35:15;;;;;;;3.27;2.80;;;12.20;99.90;;;10.69;100.00;98075.31;5071875;28;20456;-73
2021/12/30 09:37:43;;;;;;;3.50;3.17;;;12.20;99.90;;;11.20;100.00;98146.59;5042067;28;20537;-75
2021/12/30 09:40:14;;;;;;;4.00;2.37;;;12.30;99.90;;;11.16;100.00;98134.56;5068787;28;20538;-73
2021/12/30 09:42:45;;;;;;;2.47;2.27;;;12.30;99.90;;;10.92;100.00;98139.66;5078125;28;20511;-73
2021/12/30 09:45:13;;;;;;;3.03;1.80;;;12.20;99.90;;;11.16;100.00;98145.38;5088394;28;20462;-72
2021/12/30 09:47:44;;;;;;;1.50;1.40;;;12.20;99.90;;;10.96;100.00;98102.22;5078785;28;20501;-72
2021/12/30 09:50:11;;;;;;;1.80;1.20;;;12.30;99.90;;;11.29;100.00;98136.34;5077531;28;20486;-72
2021/12/30 09:52:39;;;;;;;2.20;1.57;;;12.40;99.90;;;11.25;100.00;98144.06;5079954;28;20987;-72
2021/12/30 09:55:08;;;;;;;1.43;1.30;;;12.40;99.90;;;11.40;100.00;98151.06;5097446;28;21084;-73
2021/12/30 09:57:35;;;;;;;1.87;1.47;;;12.50;99.90;;;11.42;100.00;98148.94;5079567;28;21179;-72
2021/12/30 10:00:05;;;;;;;2.63;1.30;;;12.60;99.90;;;11.39;100.00;98146.69;5079249;28;20999;-72
2021/12/30 10:02:33;;;;;;;1.27;1.27;;;12.60;99.90;;;11.44;100.00;98153.09;5082711;28;20540;-72
2021/12/30 10:05:07;;;;;;;1.40;1.30;;;12.60;99.90;;;11.42;100.00;98148.94;5082638;28;20459;-74
2021/12/30 10:07:34;;;;;;;4.00;1.37;;;12.60;99.90;;;11.28;100.00;98138.22;5085946;28;20463;-71
2021/12/30 10:10:02;;;;;;;1.53;1.40;;;12.60;99.90;;;11.50;100.00;98148.69;5063831;28;20465;-77
2021/12/30 10:12:39;;;;;;;2.30;2.10;;;12.60;99.90;;;11.46;100.00;98131.25;5084302;28;21104;-75
2021/12/30 10:15:09;;;;;;;2.40;1.70;;;12.70;99.90;;;11.64;100.00;98152.13;5087708;28;20458;-70
2021/12/30 10:17:37;;;;;;;2.57;2.27;;;12.80;99.90;;;11.57;100.00;98133.25;5063964;28;20467;-70
2021/12/30 10:20:22;;;;;;;4.20;1.90;;;12.80;99.90;;;11.71;100.00;98149.38;5092963;28;20787;-71
2021/12/30 10:22:50;;;;;;;2.60;1.50;;;12.90;99.90;;;11.99;98.75;98164.38;5060201;28;20894;-71